Flight Track Log - Related Links

Times and Time Zones

All times are in EDT time to prevent confusion due to time zone crossing. See the ASA200 flight status page for this flight to view local times or setup timezone preferences in your user account.

Time Position Orientation Groundspeed Altitude Reporting Facility
EDT Latitude Longitude Course Direction KTS MPH feet Rate Location/Type
Wed 09:08:58 AM 47.4656 -122.3069 359° North 172 198 1,500  Level Seattle Center
Wed 09:09:24 AM 47.4803 -122.3072 359° North 164 189 2,400 1,857 Climbing Seattle Center
Wed 09:09:40 AM 47.4992 -122.3081 358° North 187 215 2,800 2,164 Climbing Seattle Center
Wed 09:10:25 AM 47.5450 -122.3100 358° North 216 249 4,600 2,686 Climbing Seattle Center
Wed 09:11:25 AM 47.6044 -122.3661 328° Northwest 260 299 7,500 2,700 Climbing Seattle Center
Wed 09:12:25 AM 47.6100 -122.4775 274° West 283 326 10,000 2,331 Climbing Seattle Center
Wed 09:13:26 AM 47.5500 -122.5747 228° Southwest 329 379 12,200 2,331 Climbing Seattle Center
Wed 09:14:26 AM 47.4889 -122.6683 226° Southwest 342 394 14,700 2,628 Climbing Seattle Center
Wed 09:15:27 AM 47.4189 -122.7753 226° Southwest 363 418 17,500 2,579 Climbing Seattle Center
Wed 09:16:27 AM 47.3461 -122.8864 226° Southwest 378 435 19,900 2,033 Climbing Seattle Center
Wed 09:17:28 AM 47.2686 -123.0033 226° Southwest 399 459 21,600 1,934 Climbing Seattle Center
Wed 09:18:28 AM 47.1764 -123.1153 220° Southwest 431 496 23,800 2,430 Climbing Seattle Center
Wed 09:19:29 AM 47.0497 -123.2167 209° Southwest 446 513 26,500 2,132 Climbing Seattle Center
Wed 09:20:29 AM 46.9225 -123.2144 179° South 462 532 28,100 1,537 Climbing Seattle Center
Wed 09:21:30 AM 46.7911 -123.2097 179° South 476 548 29,600 1,388 Climbing Seattle Center
Wed 09:22:30 AM 46.6583 -123.2094 180° South 482 555 30,900 1,339 Climbing Seattle Center
Wed 09:23:31 AM 46.5222 -123.2069 179° South 496 571 32,300 1,475 Climbing Seattle Center
Wed 09:24:32 AM 46.3847 -123.2008 178° South 497 572 33,900 1,438 Climbing Seattle Center
Wed 09:25:32 AM 46.2469 -123.1953 178° South 496 571 35,200 1,190 Climbing Seattle Center
Wed 09:26:33 AM 46.1089 -123.1925 179° South 498 573 36,300 1,091 Climbing Seattle Center
Wed 09:27:33 AM 45.9703 -123.1861 178° South 498 573 37,400 1,190 Climbing Seattle Center
Wed 09:28:34 AM 45.8325 -123.1811 179° South 495 570 38,700 787 Climbing Seattle Center
Wed 09:29:35 AM 45.6967 -123.1756 178° South 489 563 39,000 149 Climbing Seattle Center
Wed 09:30:35 AM 45.5619 -123.1717 179° South 486 559 39,000  Level Seattle Center
Wed 09:31:36 AM 45.4258 -123.1650 178° South 490 564 39,000  Level Seattle Center
Wed 09:32:37 AM 45.2928 -123.1617 179° South 480 552 39,000  Level Seattle Center
Wed 09:33:37 AM 45.1597 -123.1578 179° South 475 547 39,000  Level Seattle Center
Wed 09:34:38 AM 45.0256 -123.1517 178° South 477 549 39,000  Level Seattle Center
Wed 09:35:39 AM 44.8917 -123.1489 179° South 476 548 39,000  Level Seattle Center
Wed 09:36:39 AM 44.7569 -123.1431 178° South 478 550 39,000  Level Seattle Center
Wed 09:37:40 AM 44.6236 -123.1389 179° South 478 550 39,000  Level Seattle Center
Wed 09:38:41 AM 44.4881 -123.1344 179° South 484 557 39,000  Level Seattle Center
Wed 09:39:41 AM 44.3558 -123.1311 179° South 477 549 39,000  Level Seattle Center
Wed 09:40:42 AM 44.2256 -123.1231 177° South 472 543 39,000  Level Seattle Center
Wed 09:41:43 AM 44.0653 -123.1192 179° South 478 550 39,000  Level Seattle Center
Wed 09:42:43 AM 43.9419 -123.1150 179° South 477 549 39,000  Level Seattle Center
Wed 09:43:44 AM 43.8100 -123.1108 179° South 474 545 39,000  Level Seattle Center
Wed 09:44:45 AM 43.6775 -123.1056 178° South 475 547 39,000  Level Seattle Center
Wed 09:45:45 AM 43.5456 -123.1011 179° South 474 545 39,000  Level Seattle Center
Wed 09:46:46 AM 43.4139 -123.0950 178° South 474 545 39,000  Level Seattle Center
Wed 09:47:47 AM 43.2822 -123.0908 179° South 473 544 39,000  Level Seattle Center
Wed 09:48:47 AM 43.1508 -123.0853 178° South 473 544 39,000  Level Seattle Center
Wed 09:49:48 AM 43.0197 -123.0792 178° South 472 543 39,000  Level Seattle Center
Wed 09:50:49 AM 42.8878 -123.0781 180° South 473 544 39,000  Level Seattle Center
Wed 09:51:49 AM 42.7561 -123.0717 178° South 474 545 39,000  Level Seattle Center
Wed 09:52:50 AM 42.6058 -123.0681 179° South 472 543 39,000  Level Seattle Center
Wed 09:53:51 AM 42.4747 -123.0622 178° South 473 544 39,000  Level Seattle Center
Wed 09:54:52 AM 42.3431 -123.0586 179° South 474 545 39,000  Level Seattle Center
Wed 09:55:52 AM 42.2125 -123.0544 179° South 472 543 39,000  Level Seattle Center
Wed 09:56:53 AM 42.0814 -123.0503 179° South 473 544 39,000  Level Seattle Center
Wed 09:57:54 AM 41.9506 -123.0481 179° South 472 543 39,000  Level Seattle Center
Wed 09:58:55 AM 41.8211 -123.0431 178° South 469 540 39,000  Level Seattle Center
Wed 09:59:55 AM 41.6903 -123.0397 179° South 472 543 39,000  Level Seattle Center
Wed 10:00:56 AM 41.5592 -123.0361 179° South 473 544 39,000  Level Seattle Center
Wed 10:01:57 AM 41.4283 -123.0306 178° South 472 543 39,000  Level Seattle Center
Wed 10:02:57 AM 41.2889 -123.0236 178° South 474 545 39,000  Level Seattle Center
Wed 10:03:58 AM 41.1578 -123.0167 178° South 473 544 39,000  Level Seattle Center
Wed 10:04:59 AM 41.0264 -123.0111 178° South 472 543 39,000  Level Seattle Center
Wed 10:06:00 AM 40.8936 -123.0042 178° South 475 547 39,000  Level Seattle Center
Wed 10:07:02 AM 40.7586 -122.9983 178° South 472 543 39,000  Level Oakland Center
Wed 10:08:03 AM 40.6281 -122.9914 178° South 472 543 39,000  Level Oakland Center
Wed 10:09:04 AM 40.4708 -122.9836 178° South 475 547 39,000  Level Oakland Center
Wed 10:10:05 AM 40.3411 -122.9783 178° South 471 542 39,000  Level Oakland Center
Wed 10:11:06 AM 40.2142 -122.9700 177° South 465 535 39,000  Level Oakland Center
Wed 10:12:07 AM 40.0875 -122.9533 174° South 462 532 39,000  Level Oakland Center
Wed 10:13:08 AM 39.9619 -122.9361 174° South 459 528 39,000  Level Oakland Center
Wed 10:14:09 AM 39.8378 -122.9206 175° South 455 524 39,000  Level Oakland Center
Wed 10:15:10 AM 39.7125 -122.9025 174° South 457 526 39,000  Level Oakland Center
Wed 10:16:11 AM 39.5886 -122.8875 175° South 452 520 39,000  Level Oakland Center
Wed 10:17:12 AM 39.4392 -122.8675 174° South 453 521 39,000 -393 Level Oakland Center
Wed 10:18:13 AM 39.3167 -122.8519 174° South 447 514 38,200 -885 Descending Oakland Center
Wed 10:19:14 AM 39.1931 -122.8347 174° South 454 522 37,200 -934 Descending Oakland Center
Wed 10:20:15 AM 39.0683 -122.8186 174° South 453 521 36,300 -976 Descending Oakland Center
Wed 10:21:17 AM 38.9336 -122.8014 174° South 455 524 35,200 -1,317 Descending Oakland Center
Wed 10:22:18 AM 38.8094 -122.7853 174° South 451 519 33,600 -2,066 Descending Oakland Center
Wed 10:23:19 AM 38.6828 -122.7703 175° South 455 524 31,000 -2,361 Descending Oakland Center
Wed 10:24:20 AM 38.5600 -122.7561 175° South 447 514 28,800 -2,115 Descending Oakland Center
Wed 10:25:21 AM 38.4406 -122.7406 174° South 436 502 26,700 -2,066 Descending Oakland Center
Wed 10:26:22 AM 38.3250 -122.7258 174° South 423 487 24,600 -2,016 Descending Oakland Center
Wed 10:27:23 AM 38.2125 -122.7125 175° South 408 470 22,600 -1,902 Descending Oakland Center
Wed 10:28:25 AM 38.1050 -122.6989 174° South 394 453 20,700 -2,049 Descending Oakland Center
Wed 10:29:26 AM 37.9797 -122.6850 175° South 383 441 18,400 -2,016 Descending Oakland Center
Wed 10:30:27 AM 37.8817 -122.6594 168° South 379 436 16,600 -2,151 Descending Oakland Center
Wed 10:31:12 AM 37.8167 -122.5833 137° Southeast 374 430 14,600 -2,135 Descending Northern Cal TRACON
Wed 10:32:11 AM 37.7500 -122.5000 135° Southeast 356 410 12,900 -1,263 Descending Northern Cal TRACON
Wed 10:33:06 AM 37.6833 -122.4333 142° Southeast 329 379 12,200 -470 Descending Northern Cal TRACON
Wed 10:34:06 AM 37.6167 -122.3833 149° Southeast 299 344 12,000 -140 Descending Northern Cal TRACON
Wed 10:34:32 AM 37.5928 -122.3633 146° Southeast 298 343 12,000 -690 Level Oakland Center
Wed 10:35:33 AM 37.5119 -122.3181 156° South 269 310 11,000 -590 Descending Oakland Center
Wed 10:36:34 AM 37.4475 -122.2817 156° South 257 296 10,800 -639 Descending Oakland Center
Wed 10:37:35 AM 37.3939 -122.2281 142° Southeast 258 297 9,700 -1,230 Descending Oakland Center
Wed 10:38:36 AM 37.3556 -122.1594 125° Southeast 244 281 8,300 -1,180 Descending Oakland Center
Wed 10:39:37 AM 37.3169 -122.0944 127° Southeast 235 270 7,300 -1,073 Descending Oakland Center
Wed 10:40:39 AM 37.2822 -122.0311 125° Southeast 224 258 6,100 -634 Descending Oakland Center
Wed 10:41:40 AM 37.2472 -121.9736 127° Southeast 211 243 6,000 -49 Descending Oakland Center
Wed 10:42:41 AM 37.2125 -121.9136 126° Southeast 213 245 6,000  Level Oakland Center
Wed 10:43:42 AM 37.1733 -121.8639 135° Southeast 204 235 6,000  Level Oakland Center
Wed 10:44:43 AM 37.1350 -121.8158 135° Southeast 197 227 6,000 -197 Level Oakland Center
Wed 10:45:44 AM 37.1417 -121.7444 83° East 201 231 5,600 -732 Descending Oakland Center
Wed 10:46:46 AM 37.1839 -121.7364 North 202 232 4,500 -1,073 Descending Oakland Center
Wed 10:47:47 AM 37.2231 -121.7800 318° Northwest 194 223 3,400 -934 Descending Oakland Center
Wed 10:48:48 AM 37.2586 -121.8186 319° Northwest 179 206 2,600 -787 Descending Oakland Center
Wed 10:49:49 AM 37.2911 -121.8536 319° Northwest 167 192 1,800 -836 Descending Oakland Center
Wed 10:50:50 AM 37.3231 -121.8861 321° Northwest 156 180 900 -836 Descending Oakland Center
Wed 10:51:51 AM 37.3519 -121.9189 318° Northwest 148 170 100 -787 Descending Oakland Center

Login

Don't have an account? Register now (free) for customized features, flight alerts, and more!